Timber Mountain, Nevada Weather observations

Data are for 10 minute period ending at time listed.
 Day   Time   Solar   Ave.   Ave.  Ave.  Vector  Max.   Baro.   Total    
  of    of     Rad.   Air    Rel.  Wind   Wind   Wind  Press.  Precip.   
Year   Day            Temp.  Hum.  Speed  Dir.   Gust                    
2014   (PST)  Kw/m2    F      %     mph   deg.    mph    mb.     in.     
-------------------------------------------------------------------------
 350   18:00   0.00   33.2    84    3.9   122     8.5   807.5    0.00 
 350   19:00   0.00   33.2    83    4.6   131    10.9   807.8    0.00 
 350   20:00   0.00   32.9    84    4.7   130     7.7   807.7    0.00 
 350   21:00   0.00   32.8    85    5.6   138    10.4   807.8    0.00 
 350   22:00   0.00   32.2    87    6.7   130    12.7   807.7    0.00 
 350   23:00   0.00   31.9    89    7.4   118    11.0   807.5    0.00 
 351    0:00   0.00   31.5    91    4.2   111     7.9   807.2    0.00 
 351    1:00   0.00   32.5    90    4.8   161    12.4   806.8    0.00 
 351    2:00   0.00   32.0    90    5.9   135    11.3   806.7    0.00 
 351    3:00   0.00   31.9    91    4.7   132    10.2   806.6    0.00 
 351    4:00   0.00   31.6    92    5.8   112    10.0   806.2    0.00 
 351    5:00   0.00   31.5    94    4.6   125     8.5   806.2    0.00 
 351    6:00   0.00   31.6    95    3.5   111     7.6   806.3    0.00 
 351    7:00   0.00   31.2    97    4.1   103     9.1   806.7    0.00 
 351    8:00   0.04   30.8    99    4.7   104     8.2   807.1    0.00 
 351    9:00   0.09   32.0    96    5.9    98    10.2   807.6    0.00 
 351   10:00   0.14   33.6    91    5.1   106     8.2   808.3    0.00 
 351   11:00   0.20   33.6    92    6.5   131    10.5   808.4    0.00 
 351   12:00   0.34   34.8    88    6.1   141    10.4   808.0    0.00 
 351   13:00   0.19   35.3    85    4.2   161     7.7   807.8    0.00 
 351   14:00   0.17   34.7    87    4.5   184     8.0   807.8    0.00 
 351   15:00   0.20   36.2    81    3.7   228     7.8   807.7    0.00 
 351   16:00   0.04   33.5    91    4.4   132     8.1   808.0    0.00 
 351   17:00   0.00   32.8    94    2.1   260     7.4   808.4    0.00 

Return to Timber Mountain graphs page.


Western Regional Climate Center,wrcc@dri.edu